sensor_id;sensor_type;location;lat;lon;timestamp;P1;durP1;ratioP1;P2;durP2;ratioP2
48042;SDS011;33988;47.992;8.820;2023-07-22T00:01:13;1.85;;;1.38;;
48042;SDS011;33988;47.992;8.820;2023-07-22T00:03:40;1.73;;;1.30;;
48042;SDS011;33988;47.992;8.820;2023-07-22T00:06:08;2.33;;;1.50;;
48042;SDS011;33988;47.992;8.820;2023-07-22T00:08:37;1.92;;;1.50;;
48042;SDS011;33988;47.992;8.820;2023-07-22T00:11:07;3.28;;;1.88;;
48042;SDS011;33988;47.992;8.820;2023-07-22T00:13:36;1.77;;;1.23;;
48042;SDS011;33988;47.992;8.820;2023-07-22T00:16:06;2.42;;;1.52;;
48042;SDS011;33988;47.992;8.820;2023-07-22T00:18:34;1.92;;;1.25;;
48042;SDS011;33988;47.992;8.820;2023-07-22T00:21:01;3.05;;;1.55;;
48042;SDS011;33988;47.992;8.820;2023-07-22T00:23:28;2.47;;;1.40;;
48042;SDS011;33988;47.992;8.820;2023-07-22T00:25:56;1.90;;;1.55;;
48042;SDS011;33988;47.992;8.820;2023-07-22T00:28:25;1.90;;;1.33;;
48042;SDS011;33988;47.992;8.820;2023-07-22T00:30:52;2.38;;;1.45;;
48042;SDS011;33988;47.992;8.820;2023-07-22T00:33:23;2.00;;;1.30;;
48042;SDS011;33988;47.992;8.820;2023-07-22T00:35:50;1.80;;;1.33;;
48042;SDS011;33988;47.992;8.820;2023-07-22T00:38:18;1.85;;;1.33;;
48042;SDS011;33988;47.992;8.820;2023-07-22T00:40:46;4.35;;;1.33;;
48042;SDS011;33988;47.992;8.820;2023-07-22T00:43:13;2.35;;;1.10;;
48042;SDS011;33988;47.992;8.820;2023-07-22T00:45:39;1.45;;;1.33;;
48042;SDS011;33988;47.992;8.820;2023-07-22T00:48:06;1.83;;;1.35;;
48042;SDS011;33988;47.992;8.820;2023-07-22T00:50:40;1.95;;;1.50;;
48042;SDS011;33988;47.992;8.820;2023-07-22T00:53:07;2.83;;;1.48;;
48042;SDS011;33988;47.992;8.820;2023-07-22T00:55:36;3.70;;;1.40;;
48042;SDS011;33988;47.992;8.820;2023-07-22T00:58:07;3.05;;;1.48;;
48042;SDS011;33988;47.992;8.820;2023-07-22T01:00:36;4.78;;;1.35;;
48042;SDS011;33988;47.992;8.820;2023-07-22T01:03:05;1.33;;;1.23;;
48042;SDS011;33988;47.992;8.820;2023-07-22T01:05:34;2.13;;;1.50;;
48042;SDS011;33988;47.992;8.820;2023-07-22T01:08:04;1.52;;;1.25;;
48042;SDS011;33988;47.992;8.820;2023-07-22T01:10:32;1.70;;;1.40;;
48042;SDS011;33988;47.992;8.820;2023-07-22T01:13:02;3.25;;;1.30;;
48042;SDS011;33988;47.992;8.820;2023-07-22T01:15:30;3.67;;;1.45;;
48042;SDS011;33988;47.992;8.820;2023-07-22T01:17:58;2.45;;;1.33;;
48042;SDS011;33988;47.992;8.820;2023-07-22T01:20:29;2.55;;;1.52;;
48042;SDS011;33988;47.992;8.820;2023-07-22T01:22:59;1.40;;;1.30;;
48042;SDS011;33988;47.992;8.820;2023-07-22T01:25:30;2.13;;;1.40;;
48042;SDS011;33988;47.992;8.820;2023-07-22T01:27:57;3.15;;;1.40;;
48042;SDS011;33988;47.992;8.820;2023-07-22T01:30:24;1.90;;;1.33;;
48042;SDS011;33988;47.992;8.820;2023-07-22T01:32:56;1.60;;;1.30;;
48042;SDS011;33988;47.992;8.820;2023-07-22T01:35:28;2.13;;;1.23;;
48042;SDS011;33988;47.992;8.820;2023-07-22T01:37:55;2.30;;;1.55;;
48042;SDS011;33988;47.992;8.820;2023-07-22T01:40:23;1.52;;;1.20;;
48042;SDS011;33988;47.992;8.820;2023-07-22T01:42:51;1.63;;;1.42;;
48042;SDS011;33988;47.992;8.820;2023-07-22T01:45:18;2.70;;;1.60;;
48042;SDS011;33988;47.992;8.820;2023-07-22T01:47:45;2.22;;;1.40;;
48042;SDS011;33988;47.992;8.820;2023-07-22T01:50:15;5.22;;;1.52;;
48042;SDS011;33988;47.992;8.820;2023-07-22T01:52:44;2.85;;;1.48;;
48042;SDS011;33988;47.992;8.820;2023-07-22T01:55:12;2.08;;;1.30;;
48042;SDS011;33988;47.992;8.820;2023-07-22T01:57:42;1.30;;;1.20;;
48042;SDS011;33988;47.992;8.820;2023-07-22T02:00:09;2.30;;;1.42;;
48042;SDS011;33988;47.992;8.820;2023-07-22T02:02:37;1.55;;;1.17;;
48042;SDS011;33988;47.992;8.820;2023-07-22T02:05:08;3.17;;;1.30;;
48042;SDS011;33988;47.992;8.820;2023-07-22T02:07:37;1.90;;;1.30;;
48042;SDS011;33988;47.992;8.820;2023-07-22T02:10:04;1.50;;;1.30;;
48042;SDS011;33988;47.992;8.820;2023-07-22T02:12:32;1.75;;;1.40;;
48042;SDS011;33988;47.992;8.820;2023-07-22T02:14:59;2.42;;;1.00;;
48042;SDS011;33988;47.992;8.820;2023-07-22T02:17:26;3.17;;;1.20;;
48042;SDS011;33988;47.992;8.820;2023-07-22T02:19:57;1.92;;;1.40;;
48042;SDS011;33988;47.992;8.820;2023-07-22T02:22:28;3.25;;;1.15;;
48042;SDS011;33988;47.992;8.820;2023-07-22T02:24:55;1.50;;;1.27;;
48042;SDS011;33988;47.992;8.820;2023-07-22T02:27:22;1.33;;;1.17;;
48042;SDS011;33988;47.992;8.820;2023-07-22T02:29:52;1.20;;;1.10;;
48042;SDS011;33988;47.992;8.820;2023-07-22T02:32:21;2.30;;;1.10;;
48042;SDS011;33988;47.992;8.820;2023-07-22T02:34:48;2.10;;;1.10;;
48042;SDS011;33988;47.992;8.820;2023-07-22T02:37:15;2.47;;;1.20;;
48042;SDS011;33988;47.992;8.820;2023-07-22T02:39:44;1.55;;;1.20;;
48042;SDS011;33988;47.992;8.820;2023-07-22T02:42:11;2.13;;;1.30;;
48042;SDS011;33988;47.992;8.820;2023-07-22T02:44:38;1.33;;;1.10;;
48042;SDS011;33988;47.992;8.820;2023-07-22T02:47:07;3.70;;;1.35;;
48042;SDS011;33988;47.992;8.820;2023-07-22T02:49:34;4.93;;;1.33;;
48042;SDS011;33988;47.992;8.820;2023-07-22T02:52:02;2.58;;;1.30;;
48042;SDS011;33988;47.992;8.820;2023-07-22T02:54:29;1.63;;;1.50;;
48042;SDS011;33988;47.992;8.820;2023-07-22T02:56:56;2.65;;;1.70;;
48042;SDS011;33988;47.992;8.820;2023-07-22T02:59:29;1.58;;;1.48;;
48042;SDS011;33988;47.992;8.820;2023-07-22T03:01:58;1.80;;;1.20;;
48042;SDS011;33988;47.992;8.820;2023-07-22T03:04:25;3.33;;;1.60;;
48042;SDS011;33988;47.992;8.820;2023-07-22T03:06:52;3.08;;;1.30;;
48042;SDS011;33988;47.992;8.820;2023-07-22T03:09:19;3.22;;;1.30;;
48042;SDS011;33988;47.992;8.820;2023-07-22T03:11:47;1.60;;;1.33;;
48042;SDS011;33988;47.992;8.820;2023-07-22T03:14:14;1.50;;;1.40;;
48042;SDS011;33988;47.992;8.820;2023-07-22T03:16:41;1.80;;;1.10;;
48042;SDS011;33988;47.992;8.820;2023-07-22T03:19:11;1.52;;;1.33;;
48042;SDS011;33988;47.992;8.820;2023-07-22T03:21:38;3.00;;;1.25;;
48042;SDS011;33988;47.992;8.820;2023-07-22T03:24:05;1.33;;;1.10;;
48042;SDS011;33988;47.992;8.820;2023-07-22T03:26:34;1.63;;;1.42;;
48042;SDS011;33988;47.992;8.820;2023-07-22T03:29:04;1.48;;;1.30;;
48042;SDS011;33988;47.992;8.820;2023-07-22T03:31:33;2.30;;;1.23;;
48042;SDS011;33988;47.992;8.820;2023-07-22T03:34:00;1.60;;;1.27;;
48042;SDS011;33988;47.992;8.820;2023-07-22T03:36:27;2.67;;;1.27;;
48042;SDS011;33988;47.992;8.820;2023-07-22T03:38:59;3.88;;;1.50;;
48042;SDS011;33988;47.992;8.820;2023-07-22T03:41:29;2.13;;;1.33;;
48042;SDS011;33988;47.992;8.820;2023-07-22T03:43:58;2.08;;;1.40;;
48042;SDS011;33988;47.992;8.820;2023-07-22T03:46:25;2.33;;;1.30;;
48042;SDS011;33988;47.992;8.820;2023-07-22T03:48:53;1.92;;;1.23;;
48042;SDS011;33988;47.992;8.820;2023-07-22T03:51:22;1.80;;;1.33;;
48042;SDS011;33988;47.992;8.820;2023-07-22T03:53:49;1.77;;;1.45;;
48042;SDS011;33988;47.992;8.820;2023-07-22T03:56:16;2.15;;;1.13;;
48042;SDS011;33988;47.992;8.820;2023-07-22T03:58:43;2.42;;;1.40;;
48042;SDS011;33988;47.992;8.820;2023-07-22T04:01:10;1.33;;;1.23;;
48042;SDS011;33988;47.992;8.820;2023-07-22T04:03:39;1.52;;;1.33;;
48042;SDS011;33988;47.992;8.820;2023-07-22T04:06:06;5.95;;;1.48;;
48042;SDS011;33988;47.992;8.820;2023-07-22T04:08:33;1.27;;;1.15;;
48042;SDS011;33988;47.992;8.820;2023-07-22T04:11:03;2.08;;;1.20;;
48042;SDS011;33988;47.992;8.820;2023-07-22T04:13:30;1.80;;;1.25;;
48042;SDS011;33988;47.992;8.820;2023-07-22T04:15:59;1.73;;;1.20;;
48042;SDS011;33988;47.992;8.820;2023-07-22T04:18:26;1.30;;;1.17;;
48042;SDS011;33988;47.992;8.820;2023-07-22T04:20:59;2.20;;;1.38;;
48042;SDS011;33988;47.992;8.820;2023-07-22T04:23:30;1.77;;;1.27;;
48042;SDS011;33988;47.992;8.820;2023-07-22T04:26:01;1.70;;;1.30;;
48042;SDS011;33988;47.992;8.820;2023-07-22T04:28:34;2.00;;;1.60;;
48042;SDS011;33988;47.992;8.820;2023-07-22T04:31:01;2.25;;;1.38;;
48042;SDS011;33988;47.992;8.820;2023-07-22T04:33:33;3.38;;;1.25;;
48042;SDS011;33988;47.992;8.820;2023-07-22T04:36:00;3.67;;;1.20;;
48042;SDS011;33988;47.992;8.820;2023-07-22T04:38:27;1.83;;;1.30;;
48042;SDS011;33988;47.992;8.820;2023-07-22T04:40:54;1.80;;;1.40;;
48042;SDS011;33988;47.992;8.820;2023-07-22T04:43:21;1.85;;;1.38;;
48042;SDS011;33988;47.992;8.820;2023-07-22T04:45:48;1.80;;;1.38;;
48042;SDS011;33988;47.992;8.820;2023-07-22T04:48:15;5.22;;;1.35;;
48042;SDS011;33988;47.992;8.820;2023-07-22T04:50:47;1.50;;;1.33;;
48042;SDS011;33988;47.992;8.820;2023-07-22T04:53:13;2.03;;;1.38;;
48042;SDS011;33988;47.992;8.820;2023-07-22T04:55:42;4.05;;;1.50;;
48042;SDS011;33988;47.992;8.820;2023-07-22T04:58:09;2.60;;;1.52;;
48042;SDS011;33988;47.992;8.820;2023-07-22T05:00:37;1.88;;;1.38;;
48042;SDS011;33988;47.992;8.820;2023-07-22T05:03:08;2.20;;;1.83;;
48042;SDS011;33988;47.992;8.820;2023-07-22T05:05:38;3.58;;;1.88;;
48042;SDS011;33988;47.992;8.820;2023-07-22T05:08:05;3.33;;;1.42;;
48042;SDS011;33988;47.992;8.820;2023-07-22T05:10:35;2.78;;;2.15;;
48042;SDS011;33988;47.992;8.820;2023-07-22T05:13:04;4.43;;;1.77;;
48042;SDS011;33988;47.992;8.820;2023-07-22T05:15:31;6.18;;;2.35;;
48042;SDS011;33988;47.992;8.820;2023-07-22T05:18:01;2.85;;;1.73;;
48042;SDS011;33988;47.992;8.820;2023-07-22T05:20:28;3.50;;;1.85;;
48042;SDS011;33988;47.992;8.820;2023-07-22T05:22:55;3.35;;;2.10;;
48042;SDS011;33988;47.992;8.820;2023-07-22T05:25:23;3.00;;;1.95;;
48042;SDS011;33988;47.992;8.820;2023-07-22T05:27:49;1.77;;;1.60;;
48042;SDS011;33988;47.992;8.820;2023-07-22T05:30:19;3.08;;;1.90;;
48042;SDS011;33988;47.992;8.820;2023-07-22T05:35:27;1.63;;;1.50;;
48042;SDS011;33988;47.992;8.820;2023-07-22T05:37:54;2.33;;;1.80;;
48042;SDS011;33988;47.992;8.820;2023-07-22T05:40:21;1.83;;;1.67;;
48042;SDS011;33988;47.992;8.820;2023-07-22T05:42:50;3.90;;;1.80;;
48042;SDS011;33988;47.992;8.820;2023-07-22T05:45:17;2.20;;;1.80;;
48042;SDS011;33988;47.992;8.820;2023-07-22T05:47:44;4.93;;;2.05;;
48042;SDS011;33988;47.992;8.820;2023-07-22T05:50:11;3.33;;;2.25;;
48042;SDS011;33988;47.992;8.820;2023-07-22T05:52:41;4.07;;;2.58;;
48042;SDS011;33988;47.992;8.820;2023-07-22T05:55:08;4.18;;;2.70;;
48042;SDS011;33988;47.992;8.820;2023-07-22T05:57:37;3.13;;;2.42;;
48042;SDS011;33988;47.992;8.820;2023-07-22T06:00:04;2.30;;;1.92;;
48042;SDS011;33988;47.992;8.820;2023-07-22T06:02:34;3.40;;;2.25;;
48042;SDS011;33988;47.992;8.820;2023-07-22T06:05:02;3.47;;;2.30;;
48042;SDS011;33988;47.992;8.820;2023-07-22T06:07:34;3.60;;;2.08;;
48042;SDS011;33988;47.992;8.820;2023-07-22T06:10:01;2.65;;;1.90;;
48042;SDS011;33988;47.992;8.820;2023-07-22T06:12:28;3.30;;;2.00;;
48042;SDS011;33988;47.992;8.820;2023-07-22T06:14:57;2.22;;;1.88;;
48042;SDS011;33988;47.992;8.820;2023-07-22T06:17:27;2.35;;;2.10;;
48042;SDS011;33988;47.992;8.820;2023-07-22T06:19:59;2.88;;;2.17;;
48042;SDS011;33988;47.992;8.820;2023-07-22T06:22:26;3.40;;;2.00;;
48042;SDS011;33988;47.992;8.820;2023-07-22T06:24:53;3.72;;;1.80;;
48042;SDS011;33988;47.992;8.820;2023-07-22T06:27:22;3.55;;;1.85;;
48042;SDS011;33988;47.992;8.820;2023-07-22T06:29:51;5.50;;;2.78;;
48042;SDS011;33988;47.992;8.820;2023-07-22T06:32:18;3.35;;;2.28;;
48042;SDS011;33988;47.992;8.820;2023-07-22T06:34:45;5.40;;;2.72;;
48042;SDS011;33988;47.992;8.820;2023-07-22T06:37:12;6.32;;;2.90;;
48042;SDS011;33988;47.992;8.820;2023-07-22T06:39:39;5.28;;;3.13;;
48042;SDS011;33988;47.992;8.820;2023-07-22T06:42:06;4.15;;;3.05;;
48042;SDS011;33988;47.992;8.820;2023-07-22T06:44:35;3.55;;;2.88;;
48042;SDS011;33988;47.992;8.820;2023-07-22T06:47:02;5.93;;;2.85;;
48042;SDS011;33988;47.992;8.820;2023-07-22T06:49:31;6.25;;;3.17;;
48042;SDS011;33988;47.992;8.820;2023-07-22T06:52:02;4.28;;;2.90;;
48042;SDS011;33988;47.992;8.820;2023-07-22T06:54:31;4.50;;;2.53;;
48042;SDS011;33988;47.992;8.820;2023-07-22T06:57:01;4.65;;;2.80;;
48042;SDS011;33988;47.992;8.820;2023-07-22T06:59:28;4.07;;;2.85;;
48042;SDS011;33988;47.992;8.820;2023-07-22T07:01:57;4.20;;;2.92;;
48042;SDS011;33988;47.992;8.820;2023-07-22T07:04:24;4.07;;;2.75;;
48042;SDS011;33988;47.992;8.820;2023-07-22T07:06:53;6.22;;;2.78;;
48042;SDS011;33988;47.992;8.820;2023-07-22T07:09:20;4.93;;;3.13;;
48042;SDS011;33988;47.992;8.820;2023-07-22T07:11:50;3.53;;;2.92;;
48042;SDS011;33988;47.992;8.820;2023-07-22T07:14:22;6.72;;;2.92;;
48042;SDS011;33988;47.992;8.820;2023-07-22T07:16:51;3.75;;;2.58;;
48042;SDS011;33988;47.992;8.820;2023-07-22T07:19:20;2.30;;;1.95;;
48042;SDS011;33988;47.992;8.820;2023-07-22T07:21:47;2.83;;;2.20;;
48042;SDS011;33988;47.992;8.820;2023-07-22T07:24:14;3.63;;;2.20;;
48042;SDS011;33988;47.992;8.820;2023-07-22T07:26:41;3.15;;;2.55;;
48042;SDS011;33988;47.992;8.820;2023-07-22T07:29:08;3.95;;;2.45;;
48042;SDS011;33988;47.992;8.820;2023-07-22T07:31:53;4.72;;;2.63;;
48042;SDS011;33988;47.992;8.820;2023-07-22T07:34:23;3.13;;;2.33;;
48042;SDS011;33988;47.992;8.820;2023-07-22T07:36:50;3.83;;;2.20;;
48042;SDS011;33988;47.992;8.820;2023-07-22T07:39:19;6.72;;;2.60;;
48042;SDS011;33988;47.992;8.820;2023-07-22T07:41:49;2.75;;;1.98;;
48042;SDS011;33988;47.992;8.820;2023-07-22T07:44:18;3.63;;;2.22;;
48042;SDS011;33988;47.992;8.820;2023-07-22T07:46:45;2.55;;;2.05;;
48042;SDS011;33988;47.992;8.820;2023-07-22T07:49:12;5.32;;;2.17;;
48042;SDS011;33988;47.992;8.820;2023-07-22T07:51:40;2.75;;;1.77;;
48042;SDS011;33988;47.992;8.820;2023-07-22T07:54:08;1.95;;;1.42;;
48042;SDS011;33988;47.992;8.820;2023-07-22T07:56:35;1.35;;;1.10;;
48042;SDS011;33988;47.992;8.820;2023-07-22T07:59:02;1.38;;;1.27;;
48042;SDS011;33988;47.992;8.820;2023-07-22T08:01:35;1.60;;;1.17;;
48042;SDS011;33988;47.992;8.820;2023-07-22T08:04:08;1.40;;;1.23;;
48042;SDS011;33988;47.992;8.820;2023-07-22T08:06:35;1.17;;;1.08;;
48042;SDS011;33988;47.992;8.820;2023-07-22T08:09:07;1.58;;;1.15;;
48042;SDS011;33988;47.992;8.820;2023-07-22T08:11:37;1.77;;;1.02;;
48042;SDS011;33988;47.992;8.820;2023-07-22T08:14:05;1.42;;;1.10;;
48042;SDS011;33988;47.992;8.820;2023-07-22T08:16:34;1.40;;;1.30;;
48042;SDS011;33988;47.992;8.820;2023-07-22T08:19:01;1.02;;;0.95;;
48042;SDS011;33988;47.992;8.820;2023-07-22T08:21:28;2.05;;;1.20;;
48042;SDS011;33988;47.992;8.820;2023-07-22T08:23:55;1.23;;;1.13;;
48042;SDS011;33988;47.992;8.820;2023-07-22T08:26:23;2.03;;;1.10;;
48042;SDS011;33988;47.992;8.820;2023-07-22T08:28:55;1.90;;;1.20;;
48042;SDS011;33988;47.992;8.820;2023-07-22T08:31:26;1.42;;;1.20;;
48042;SDS011;33988;47.992;8.820;2023-07-22T08:33:56;1.42;;;0.95;;
48042;SDS011;33988;47.992;8.820;2023-07-22T08:36:23;1.55;;;1.10;;
48042;SDS011;33988;47.992;8.820;2023-07-22T08:38:53;1.40;;;1.30;;
48042;SDS011;33988;47.992;8.820;2023-07-22T08:41:22;8.90;;;1.35;;
48042;SDS011;33988;47.992;8.820;2023-07-22T08:43:51;1.15;;;1.05;;
48042;SDS011;33988;47.992;8.820;2023-07-22T08:46:21;1.30;;;1.20;;
48042;SDS011;33988;47.992;8.820;2023-07-22T08:48:53;1.67;;;1.27;;
48042;SDS011;33988;47.992;8.820;2023-07-22T08:51:23;1.00;;;0.95;;
48042;SDS011;33988;47.992;8.820;2023-07-22T08:53:54;1.33;;;0.93;;
48042;SDS011;33988;47.992;8.820;2023-07-22T08:56:35;1.20;;;1.10;;
48042;SDS011;33988;47.992;8.820;2023-07-22T08:59:04;1.02;;;0.90;;
48042;SDS011;33988;47.992;8.820;2023-07-22T09:01:32;1.58;;;0.98;;
48042;SDS011;33988;47.992;8.820;2023-07-22T09:04:02;1.13;;;1.02;;
48042;SDS011;33988;47.992;8.820;2023-07-22T09:06:30;1.20;;;0.95;;
48042;SDS011;33988;47.992;8.820;2023-07-22T09:08:58;1.73;;;1.02;;
48042;SDS011;33988;47.992;8.820;2023-07-22T09:11:25;1.55;;;1.02;;
48042;SDS011;33988;47.992;8.820;2023-07-22T09:13:52;1.65;;;1.08;;
48042;SDS011;33988;47.992;8.820;2023-07-22T09:16:23;1.30;;;1.20;;
48042;SDS011;33988;47.992;8.820;2023-07-22T09:18:59;1.10;;;1.00;;
48042;SDS011;33988;47.992;8.820;2023-07-22T09:21:26;1.20;;;1.10;;
48042;SDS011;33988;47.992;8.820;2023-07-22T09:23:54;1.10;;;1.00;;
48042;SDS011;33988;47.992;8.820;2023-07-22T09:26:21;1.55;;;1.13;;
48042;SDS011;33988;47.992;8.820;2023-07-22T09:28:57;5.32;;;1.30;;
48042;SDS011;33988;47.992;8.820;2023-07-22T09:31:25;1.58;;;1.27;;
48042;SDS011;33988;47.992;8.820;2023-07-22T09:33:54;1.35;;;1.00;;
48042;SDS011;33988;47.992;8.820;2023-07-22T09:39:21;1.23;;;1.02;;
48042;SDS011;33988;47.992;8.820;2023-07-22T09:41:50;1.42;;;1.10;;
48042;SDS011;33988;47.992;8.820;2023-07-22T09:44:21;1.00;;;1.00;;
48042;SDS011;33988;47.992;8.820;2023-07-22T09:46:49;1.35;;;0.90;;
48042;SDS011;33988;47.992;8.820;2023-07-22T09:49:17;1.27;;;1.13;;
48042;SDS011;33988;47.992;8.820;2023-07-22T09:51:45;1.20;;;1.10;;
48042;SDS011;33988;47.992;8.820;2023-07-22T09:54:27;1.48;;;1.10;;
48042;SDS011;33988;47.992;8.820;2023-07-22T09:56:56;1.38;;;1.27;;
48042;SDS011;33988;47.992;8.820;2023-07-22T09:59:26;1.50;;;1.40;;
48042;SDS011;33988;47.992;8.820;2023-07-22T10:01:56;1.38;;;1.10;;
48042;SDS011;33988;47.992;8.820;2023-07-22T10:04:29;2.45;;;1.33;;
48042;SDS011;33988;47.992;8.820;2023-07-22T10:07:01;1.23;;;1.10;;
48042;SDS011;33988;47.992;8.820;2023-07-22T10:09:32;1.48;;;1.15;;
48042;SDS011;33988;47.992;8.820;2023-07-22T10:12:03;2.15;;;1.38;;
48042;SDS011;33988;47.992;8.820;2023-07-22T10:14:31;7.60;;;2.05;;
48042;SDS011;33988;47.992;8.820;2023-07-22T10:17:03;2.05;;;1.50;;
48042;SDS011;33988;47.992;8.820;2023-07-22T10:19:33;2.05;;;1.20;;
48042;SDS011;33988;47.992;8.820;2023-07-22T10:22:03;1.48;;;1.38;;
48042;SDS011;33988;47.992;8.820;2023-07-22T10:24:32;1.50;;;1.40;;
48042;SDS011;33988;47.992;8.820;2023-07-22T10:27:03;3.13;;;1.38;;
48042;SDS011;33988;47.992;8.820;2023-07-22T10:29:31;1.58;;;1.30;;
48042;SDS011;33988;47.992;8.820;2023-07-22T10:32:00;3.00;;;1.42;;
48042;SDS011;33988;47.992;8.820;2023-07-22T10:34:27;2.55;;;1.30;;
48042;SDS011;33988;47.992;8.820;2023-07-22T10:36:55;1.88;;;1.35;;
48042;SDS011;33988;47.992;8.820;2023-07-22T10:39:25;1.47;;;1.10;;
48042;SDS011;33988;47.992;8.820;2023-07-22T10:42:01;2.65;;;1.40;;
48042;SDS011;33988;47.992;8.820;2023-07-22T10:44:37;1.40;;;1.30;;
48042;SDS011;33988;47.992;8.820;2023-07-22T10:47:05;1.27;;;1.17;;
48042;SDS011;33988;47.992;8.820;2023-07-22T10:49:44;1.27;;;1.13;;
48042;SDS011;33988;47.992;8.820;2023-07-22T10:52:15;1.98;;;1.48;;
48042;SDS011;33988;47.992;8.820;2023-07-22T10:55:15;1.40;;;1.30;;
48042;SDS011;33988;47.992;8.820;2023-07-22T10:57:49;1.75;;;1.15;;
48042;SDS011;33988;47.992;8.820;2023-07-22T11:00:22;2.55;;;1.40;;
48042;SDS011;33988;47.992;8.820;2023-07-22T11:03:08;1.60;;;1.20;;
48042;SDS011;33988;47.992;8.820;2023-07-22T11:08:38;1.52;;;1.30;;
48042;SDS011;33988;47.992;8.820;2023-07-22T11:11:06;1.55;;;1.20;;
48042;SDS011;33988;47.992;8.820;2023-07-22T11:13:39;1.30;;;1.20;;
48042;SDS011;33988;47.992;8.820;2023-07-22T11:16:11;1.42;;;1.30;;
48042;SDS011;33988;47.992;8.820;2023-07-22T11:21:10;1.70;;;1.00;;
48042;SDS011;33988;47.992;8.820;2023-07-22T11:23:39;0.95;;;0.95;;
48042;SDS011;33988;47.992;8.820;2023-07-22T11:26:06;1.30;;;1.20;;
48042;SDS011;33988;47.992;8.820;2023-07-22T11:28:36;1.65;;;1.30;;
48042;SDS011;33988;47.992;8.820;2023-07-22T11:33:38;1.60;;;1.30;;
48042;SDS011;33988;47.992;8.820;2023-07-22T11:36:13;1.40;;;1.30;;
48042;SDS011;33988;47.992;8.820;2023-07-22T11:38:40;1.27;;;1.17;;
48042;SDS011;33988;47.992;8.820;2023-07-22T11:41:09;2.30;;;1.15;;
48042;SDS011;33988;47.992;8.820;2023-07-22T11:43:37;2.50;;;1.35;;
48042;SDS011;33988;47.992;8.820;2023-07-22T11:46:07;1.92;;;1.30;;
48042;SDS011;33988;47.992;8.820;2023-07-22T11:48:36;1.48;;;1.38;;
48042;SDS011;33988;47.992;8.820;2023-07-22T11:51:03;2.00;;;1.60;;
48042;SDS011;33988;47.992;8.820;2023-07-22T11:53:32;2.65;;;1.48;;
48042;SDS011;33988;47.992;8.820;2023-07-22T11:55:58;3.80;;;1.58;;
48042;SDS011;33988;47.992;8.820;2023-07-22T11:58:28;2.97;;;1.58;;
48042;SDS011;33988;47.992;8.820;2023-07-22T12:03:33;1.60;;;1.38;;
48042;SDS011;33988;47.992;8.820;2023-07-22T12:06:04;1.25;;;1.15;;
48042;SDS011;33988;47.992;8.820;2023-07-22T12:08:33;1.73;;;1.40;;
48042;SDS011;33988;47.992;8.820;2023-07-22T12:11:03;2.55;;;1.40;;
48042;SDS011;33988;47.992;8.820;2023-07-22T12:13:35;4.45;;;1.70;;
48042;SDS011;33988;47.992;8.820;2023-07-22T12:16:05;2.08;;;1.77;;
48042;SDS011;33988;47.992;8.820;2023-07-22T12:18:45;2.05;;;1.65;;
48042;SDS011;33988;47.992;8.820;2023-07-22T12:21:13;4.15;;;1.90;;
48042;SDS011;33988;47.992;8.820;2023-07-22T12:23:40;2.42;;;1.63;;
48042;SDS011;33988;47.992;8.820;2023-07-22T12:26:14;1.98;;;1.38;;
48042;SDS011;33988;47.992;8.820;2023-07-22T12:28:41;1.65;;;1.55;;
48042;SDS011;33988;47.992;8.820;2023-07-22T12:31:11;1.80;;;1.50;;
48042;SDS011;33988;47.992;8.820;2023-07-22T12:33:40;2.28;;;1.73;;
48042;SDS011;33988;47.992;8.820;2023-07-22T12:36:07;1.98;;;1.75;;
48042;SDS011;33988;47.992;8.820;2023-07-22T12:38:34;2.00;;;1.50;;
48042;SDS011;33988;47.992;8.820;2023-07-22T12:41:06;2.00;;;1.70;;
48042;SDS011;33988;47.992;8.820;2023-07-22T12:43:33;3.10;;;1.77;;
48042;SDS011;33988;47.992;8.820;2023-07-22T12:46:02;2.40;;;1.67;;
48042;SDS011;33988;47.992;8.820;2023-07-22T12:48:29;2.03;;;1.75;;
48042;SDS011;33988;47.992;8.820;2023-07-22T12:50:56;2.67;;;2.08;;
48042;SDS011;33988;47.992;8.820;2023-07-22T12:53:23;2.58;;;1.60;;
48042;SDS011;33988;47.992;8.820;2023-07-22T12:55:58;2.30;;;1.90;;
48042;SDS011;33988;47.992;8.820;2023-07-22T12:58:25;2.85;;;1.90;;
48042;SDS011;33988;47.992;8.820;2023-07-22T13:00:52;2.13;;;1.83;;
48042;SDS011;33988;47.992;8.820;2023-07-22T13:03:19;2.25;;;1.50;;
48042;SDS011;33988;47.992;8.820;2023-07-22T13:05:46;2.42;;;1.70;;
48042;SDS011;33988;47.992;8.820;2023-07-22T13:08:18;2.95;;;1.77;;
48042;SDS011;33988;47.992;8.820;2023-07-22T13:10:49;2.20;;;1.80;;
48042;SDS011;33988;47.992;8.820;2023-07-22T13:13:16;5.75;;;1.77;;
48042;SDS011;33988;47.992;8.820;2023-07-22T13:15:48;2.58;;;1.80;;
48042;SDS011;33988;47.992;8.820;2023-07-22T13:18:17;2.30;;;1.85;;
48042;SDS011;33988;47.992;8.820;2023-07-22T13:20:44;2.38;;;2.08;;
48042;SDS011;33988;47.992;8.820;2023-07-22T13:23:11;2.70;;;2.08;;
48042;SDS011;33988;47.992;8.820;2023-07-22T13:25:38;2.05;;;1.83;;
48042;SDS011;33988;47.992;8.820;2023-07-22T13:28:07;2.65;;;2.00;;
48042;SDS011;33988;47.992;8.820;2023-07-22T13:30:34;2.97;;;2.25;;
48042;SDS011;33988;47.992;8.820;2023-07-22T13:33:01;2.72;;;1.88;;
48042;SDS011;33988;47.992;8.820;2023-07-22T13:35:30;2.35;;;1.77;;
48042;SDS011;33988;47.992;8.820;2023-07-22T13:37:58;3.45;;;2.00;;
48042;SDS011;33988;47.992;8.820;2023-07-22T13:40:24;5.55;;;2.83;;
48042;SDS011;33988;47.992;8.820;2023-07-22T13:42:51;5.28;;;2.17;;
48042;SDS011;33988;47.992;8.820;2023-07-22T13:45:18;3.53;;;2.15;;
48042;SDS011;33988;47.992;8.820;2023-07-22T13:47:48;3.17;;;2.05;;
48042;SDS011;33988;47.992;8.820;2023-07-22T13:50:15;2.47;;;1.85;;
48042;SDS011;33988;47.992;8.820;2023-07-22T13:52:41;2.92;;;2.08;;
48042;SDS011;33988;47.992;8.820;2023-07-22T13:55:10;1.95;;;1.60;;
48042;SDS011;33988;47.992;8.820;2023-07-22T13:57:37;3.72;;;1.90;;
48042;SDS011;33988;47.992;8.820;2023-07-22T14:00:05;2.75;;;1.85;;
48042;SDS011;33988;47.992;8.820;2023-07-22T14:02:38;2.33;;;1.85;;
48042;SDS011;33988;47.992;8.820;2023-07-22T14:05:05;3.95;;;2.17;;
48042;SDS011;33988;47.992;8.820;2023-07-22T14:07:32;2.67;;;2.30;;
48042;SDS011;33988;47.992;8.820;2023-07-22T14:10:01;3.25;;;2.20;;
48042;SDS011;33988;47.992;8.820;2023-07-22T14:12:30;2.65;;;1.92;;
48042;SDS011;33988;47.992;8.820;2023-07-22T14:15:02;2.45;;;1.88;;
48042;SDS011;33988;47.992;8.820;2023-07-22T14:17:32;10.35;;;1.98;;
48042;SDS011;33988;47.992;8.820;2023-07-22T14:19:59;2.50;;;2.17;;
48042;SDS011;33988;47.992;8.820;2023-07-22T14:22:26;2.80;;;1.95;;
48042;SDS011;33988;47.992;8.820;2023-07-22T14:24:53;2.60;;;2.00;;
48042;SDS011;33988;47.992;8.820;2023-07-22T14:27:20;2.20;;;2.00;;
48042;SDS011;33988;47.992;8.820;2023-07-22T14:29:47;3.67;;;2.28;;
48042;SDS011;33988;47.992;8.820;2023-07-22T14:32:14;2.40;;;1.75;;
48042;SDS011;33988;47.992;8.820;2023-07-22T14:34:42;3.83;;;2.05;;
48042;SDS011;33988;47.992;8.820;2023-07-22T14:37:12;2.42;;;2.03;;
48042;SDS011;33988;47.992;8.820;2023-07-22T14:39:41;11.70;;;2.60;;
48042;SDS011;33988;47.992;8.820;2023-07-22T14:42:08;2.60;;;1.80;;
48042;SDS011;33988;47.992;8.820;2023-07-22T14:44:40;2.30;;;2.05;;
48042;SDS011;33988;47.992;8.820;2023-07-22T14:47:07;2.55;;;1.95;;
48042;SDS011;33988;47.992;8.820;2023-07-22T14:49:36;2.95;;;2.25;;
48042;SDS011;33988;47.992;8.820;2023-07-22T14:52:03;5.25;;;2.10;;
48042;SDS011;33988;47.992;8.820;2023-07-22T14:54:33;2.42;;;2.13;;
48042;SDS011;33988;47.992;8.820;2023-07-22T14:57:00;3.22;;;2.25;;
48042;SDS011;33988;47.992;8.820;2023-07-22T14:59:27;2.58;;;1.90;;
48042;SDS011;33988;47.992;8.820;2023-07-22T15:01:54;2.88;;;2.00;;
48042;SDS011;33988;47.992;8.820;2023-07-22T15:04:25;2.30;;;1.90;;
48042;SDS011;33988;47.992;8.820;2023-07-22T15:06:52;2.30;;;1.77;;
48042;SDS011;33988;47.992;8.820;2023-07-22T15:09:24;5.50;;;2.38;;
48042;SDS011;33988;47.992;8.820;2023-07-22T15:11:51;2.17;;;1.73;;
48042;SDS011;33988;47.992;8.820;2023-07-22T15:14:21;3.80;;;2.30;;